createdAt,value
2023-03-23T15:59:04.991Z,3.70
2023-03-23T16:01:33.092Z,3.40
2023-03-23T16:04:07.809Z,3.10
2023-03-23T16:06:36.853Z,2.60
2023-03-23T16:09:06.939Z,2.90
2023-03-23T16:11:34.832Z,2.60
2023-03-23T16:14:03.063Z,2.80
2023-03-23T16:16:47.904Z,2.10
2023-03-23T16:19:18.192Z,2.10
2023-03-23T16:21:46.163Z,1.90
2023-03-23T16:24:14.300Z,1.90
2023-03-23T16:26:42.357Z,2.00
2023-03-23T16:29:28.444Z,2.00
2023-03-23T16:32:04.379Z,2.10
2023-03-23T16:34:33.949Z,2.50
2023-03-23T16:37:02.650Z,1.80
2023-03-23T16:39:30.730Z,2.00
2023-03-23T16:41:58.822Z,3.50
2023-03-23T16:44:26.808Z,2.80
2023-03-23T16:46:54.761Z,2.70
2023-03-23T16:49:22.589Z,2.50
2023-03-23T16:51:50.477Z,2.30
2023-03-23T16:54:18.500Z,2.50
2023-03-23T16:56:47.040Z,2.20
2023-03-23T16:59:15.472Z,2.40
2023-03-23T17:01:43.505Z,2.40
2023-03-23T17:04:12.119Z,2.40
2023-03-23T17:06:39.998Z,2.20
2023-03-23T17:09:08.059Z,2.30
2023-03-23T17:11:35.890Z,5.40
2023-03-23T17:14:03.841Z,3.90
2023-03-23T17:16:32.846Z,3.40
2023-03-23T17:19:01.110Z,3.30
2023-03-23T17:21:29.225Z,2.60
2023-03-23T17:23:57.281Z,2.70
2023-03-23T17:26:25.395Z,2.80
2023-03-23T17:28:53.310Z,2.90
2023-03-23T17:31:21.397Z,2.70
2023-03-23T17:33:49.796Z,3.20
2023-03-23T17:36:18.384Z,2.90
2023-03-23T17:38:46.453Z,3.20
2023-03-23T17:41:15.076Z,3.50
2023-03-23T17:43:43.184Z,2.80
2023-03-23T17:46:11.209Z,2.80
2023-03-23T17:48:39.303Z,2.80
2023-03-23T17:51:07.630Z,2.60
2023-03-23T17:53:36.649Z,2.80
2023-03-23T17:56:06.422Z,2.70
2023-03-23T17:58:35.506Z,2.60
2023-03-23T18:01:04.424Z,6.00
2023-03-23T18:03:32.748Z,3.10
2023-03-23T18:06:04.763Z,3.70
2023-03-23T18:08:32.872Z,3.70
2023-03-23T18:11:01.490Z,3.30
2023-03-23T18:13:34.450Z,3.50
2023-03-23T18:16:03.931Z,3.60
2023-03-23T18:18:32.560Z,3.80
2023-03-23T18:21:04.685Z,2.90
2023-03-23T18:23:39.008Z,3.90
2023-03-23T18:26:12.496Z,4.10
2023-03-23T18:28:40.811Z,5.80
2023-03-23T18:31:14.748Z,4.00
2023-03-23T18:33:46.730Z,5.10
2023-03-23T18:36:20.606Z,4.50
2023-03-23T18:38:49.521Z,4.10
2023-03-23T18:41:18.666Z,3.90
2023-03-23T18:43:46.659Z,3.60
2023-03-23T18:46:14.757Z,3.70
2023-03-23T18:48:42.790Z,3.50
2023-03-23T18:51:11.418Z,3.10
2023-03-23T18:53:40.407Z,3.20
2023-03-23T18:56:11.015Z,3.50
2023-03-23T18:58:40.214Z,3.90
2023-03-23T19:01:14.840Z,4.00
2023-03-23T19:03:43.582Z,3.80
2023-03-23T19:06:18.995Z,4.00
2023-03-23T19:08:48.866Z,3.50
2023-03-23T19:11:17.309Z,3.30
2023-03-23T19:13:58.412Z,3.20
2023-03-23T19:16:32.905Z,3.30
2023-03-23T19:19:02.363Z,3.30
2023-03-23T19:21:32.034Z,3.40
2023-03-23T19:24:01.614Z,4.40
2023-03-23T19:26:38.146Z,4.40
2023-03-23T19:29:25.922Z,4.30
2023-03-23T19:31:57.955Z,5.30
2023-03-23T19:34:28.186Z,5.10
2023-03-23T19:37:04.174Z,4.90
2023-03-23T19:39:34.740Z,5.90
2023-03-23T19:42:04.380Z,6.10
2023-03-23T19:44:34.509Z,5.70
2023-03-23T19:47:02.955Z,6.10
2023-03-23T19:49:31.030Z,6.40
2023-03-23T19:52:06.484Z,5.70
2023-03-23T19:54:39.139Z,5.90
2023-03-23T19:57:08.900Z,6.00
2023-03-23T19:59:38.200Z,5.80
2023-03-23T20:02:06.588Z,6.10
2023-03-23T20:04:35.387Z,6.50
2023-03-23T20:07:07.466Z,7.20
2023-03-23T20:09:38.159Z,6.60
2023-03-23T20:12:07.180Z,5.70
2023-03-23T20:14:36.889Z,5.90
2023-03-23T20:17:06.023Z,6.30
2023-03-23T20:19:36.353Z,6.40
2023-03-23T20:22:04.626Z,5.40
2023-03-23T20:24:32.612Z,6.20
2023-03-23T20:27:03.104Z,5.60
2023-03-23T20:29:31.641Z,5.50
2023-03-23T20:31:59.659Z,5.50
2023-03-23T20:34:31.205Z,5.80
2023-03-23T20:37:00.614Z,5.40
2023-03-23T20:39:31.086Z,5.00
2023-03-23T20:42:04.383Z,5.50
2023-03-23T20:44:34.923Z,5.80
2023-03-23T20:47:04.442Z,5.00
2023-03-23T20:49:34.993Z,6.20
2023-03-23T20:52:05.171Z,6.20
2023-03-23T20:54:33.149Z,5.30
2023-03-23T20:57:02.035Z,4.80
2023-03-23T20:59:30.079Z,5.20
2023-03-23T21:01:58.164Z,5.10
2023-03-23T21:04:27.594Z,5.10
2023-03-23T21:06:56.086Z,5.20
2023-03-23T21:09:25.413Z,5.70
2023-03-23T21:11:53.782Z,5.80
2023-03-23T21:14:21.918Z,5.70
2023-03-23T21:16:49.903Z,6.10
2023-03-23T21:19:19.630Z,7.40
2023-03-23T21:21:55.320Z,6.50
2023-03-23T21:24:30.909Z,7.40
2023-03-23T21:27:01.535Z,7.60
2023-03-23T21:29:30.919Z,7.60
2023-03-23T21:34:30.659Z,8.00
2023-03-23T21:36:59.198Z,7.20
2023-03-23T21:39:28.282Z,8.20
2023-03-23T21:41:56.346Z,7.20
2023-03-23T21:44:24.324Z,7.70
2023-03-23T21:46:52.482Z,7.70
2023-03-23T21:49:20.741Z,7.50
2023-03-23T21:51:49.597Z,7.40
2023-03-23T21:54:17.568Z,6.50
2023-03-23T21:56:45.463Z,7.10
2023-03-23T21:59:13.713Z,7.10
2023-03-23T22:01:41.730Z,7.30
2023-03-23T22:04:10.290Z,7.70
2023-03-23T22:06:38.218Z,7.20
2023-03-23T22:09:06.251Z,6.90
2023-03-23T22:11:34.567Z,7.80
2023-03-23T22:14:04.193Z,7.40
2023-03-23T22:16:32.692Z,7.10
2023-03-23T22:19:02.210Z,7.30
2023-03-23T22:21:30.709Z,7.10
2023-03-23T22:24:00.690Z,7.50
2023-03-23T22:26:30.025Z,7.10
2023-03-23T22:28:59.940Z,7.60
2023-03-23T22:31:33.929Z,7.20
2023-03-23T22:34:02.244Z,7.60
2023-03-23T22:36:30.618Z,7.20
2023-03-23T22:38:58.905Z,8.00
2023-03-23T22:41:36.895Z,7.30
2023-03-23T22:44:06.208Z,8.10
2023-03-23T22:46:34.089Z,7.40
2023-03-23T22:49:02.233Z,6.50
2023-03-23T22:51:30.732Z,7.20
2023-03-23T22:53:58.887Z,6.60
2023-03-23T22:56:26.940Z,7.40
2023-03-23T22:58:55.261Z,7.50
2023-03-23T23:01:23.887Z,7.40
2023-03-23T23:03:52.190Z,7.50
2023-03-23T23:06:20.717Z,7.60
2023-03-23T23:08:48.946Z,7.30
2023-03-23T23:11:19.244Z,8.00
2023-03-23T23:13:47.561Z,7.60
2023-03-23T23:16:17.371Z,7.70
2023-03-23T23:18:47.724Z,8.00
2023-03-23T23:21:19.703Z,7.80
2023-03-23T23:23:49.580Z,7.50
2023-03-23T23:26:18.981Z,6.80
2023-03-23T23:28:47.544Z,7.60
2023-03-23T23:31:29.286Z,7.00
2023-03-23T23:33:59.373Z,7.60
2023-03-23T23:36:30.335Z,8.00
2023-03-23T23:39:03.671Z,8.60
2023-03-23T23:41:31.768Z,9.10
2023-03-23T23:44:00.303Z,9.80
2023-03-23T23:46:30.785Z,10.50
2023-03-23T23:49:00.334Z,10.10
2023-03-23T23:51:29.319Z,9.60
2023-03-23T23:54:01.524Z,9.40
2023-03-23T23:56:29.645Z,9.40
2023-03-23T23:58:58.670Z,9.20
